createdAt,value
2018-04-01T00:00:44.039Z,7.40
2018-04-01T00:03:11.016Z,7.30
2018-04-01T00:05:38.766Z,7.30
2018-04-01T00:08:06.523Z,7.30
2018-04-01T00:10:33.488Z,7.30
2018-04-01T00:13:00.450Z,7.30
2018-04-01T00:15:28.204Z,7.30
2018-04-01T00:17:55.186Z,7.20
2018-04-01T00:20:22.175Z,7.30
2018-04-01T00:22:49.145Z,7.30
2018-04-01T00:25:16.103Z,7.30
2018-04-01T00:27:43.095Z,7.20
2018-04-01T00:30:10.836Z,7.00
2018-04-01T00:32:37.806Z,7.00
2018-04-01T00:35:05.554Z,6.90
2018-04-01T00:37:32.524Z,6.90
2018-04-01T00:40:00.270Z,6.80
2018-04-01T00:42:27.315Z,6.70
2018-04-01T00:44:54.255Z,6.80
2018-04-01T00:47:21.223Z,6.80
2018-04-01T00:49:48.190Z,6.80
2018-04-01T00:52:15.173Z,6.80
2018-04-01T00:54:42.174Z,6.80
2018-04-01T00:57:09.156Z,6.70
2018-04-01T00:59:36.908Z,6.60
2018-04-01T01:02:03.891Z,6.60
2018-04-01T01:04:31.628Z,6.50
2018-04-01T01:06:58.635Z,6.50
2018-04-01T01:09:25.625Z,6.50
2018-04-01T01:11:52.610Z,6.40
2018-04-01T01:14:20.352Z,6.30
2018-04-01T01:16:47.330Z,6.30
2018-04-01T01:19:15.097Z,6.20
2018-04-01T01:21:42.851Z,6.10
2018-04-01T01:24:09.819Z,6.10
2018-04-01T01:26:37.568Z,6.00
2018-04-01T01:29:04.545Z,6.00
2018-04-01T01:31:32.309Z,6.10
2018-04-01T01:34:00.053Z,6.20
2018-04-01T01:36:27.033Z,6.20
2018-04-01T01:38:54.771Z,6.30
2018-04-01T01:41:21.756Z,6.20
2018-04-01T01:43:49.534Z,6.20
2018-04-01T01:46:17.278Z,6.10
2018-04-01T01:48:44.256Z,6.10
2018-04-01T01:51:12.000Z,5.90
2018-04-01T01:53:38.974Z,5.90
2018-04-01T01:56:06.732Z,5.80
2018-04-01T01:58:33.707Z,5.80
2018-04-01T02:01:01.446Z,5.70
2018-04-01T02:03:28.421Z,5.60
2018-04-01T02:05:55.402Z,5.60
2018-04-01T02:08:22.392Z,5.60
2018-04-01T02:10:49.381Z,5.50
2018-04-01T02:13:17.120Z,5.50
2018-04-01T02:15:44.103Z,5.50
2018-04-01T02:18:11.852Z,5.40
2018-04-01T02:20:38.842Z,5.50
2018-04-01T02:23:05.825Z,5.50
2018-04-01T02:25:32.800Z,5.50
2018-04-01T02:27:59.782Z,5.60
2018-04-01T02:30:27.519Z,5.80
2018-04-01T02:32:54.530Z,5.80
2018-04-01T02:35:21.500Z,5.90
2018-04-01T02:37:48.489Z,6.00
2018-04-01T02:40:15.464Z,6.10
2018-04-01T02:42:43.210Z,6.20
2018-04-01T02:45:10.209Z,6.10
2018-04-01T02:47:37.195Z,6.20
2018-04-01T02:50:04.164Z,6.30
2018-04-01T02:52:31.159Z,6.30
2018-04-01T02:54:58.128Z,6.20
2018-04-01T02:57:25.144Z,6.30
2018-04-01T02:59:52.893Z,6.30
2018-04-01T03:02:19.870Z,6.30
2018-04-01T03:04:47.626Z,6.40
2018-04-01T03:07:14.620Z,6.40
2018-04-01T03:09:41.614Z,6.40
2018-04-01T03:12:08.596Z,6.40
2018-04-01T03:14:36.342Z,6.50
2018-04-01T03:17:03.335Z,6.50
2018-04-01T03:19:30.318Z,6.40
2018-04-01T03:21:57.320Z,6.50
2018-04-01T03:24:25.062Z,6.50
2018-04-01T03:26:52.054Z,6.50
2018-04-01T03:29:19.051Z,6.50
2018-04-01T03:31:46.023Z,6.50
2018-04-01T03:34:13.021Z,6.50
2018-04-01T03:36:40.002Z,6.50
2018-04-01T03:39:06.982Z,6.50
2018-04-01T03:41:33.960Z,6.50
2018-04-01T03:44:01.717Z,6.40
2018-04-01T03:46:28.716Z,6.40
2018-04-01T03:48:55.696Z,6.40
2018-04-01T03:51:22.679Z,6.40
2018-04-01T03:53:50.425Z,6.40
2018-04-01T03:56:17.405Z,6.40
2018-04-01T03:58:45.169Z,6.40
2018-04-01T04:01:12.924Z,6.30
2018-04-01T04:03:39.912Z,6.30
2018-04-01T04:06:07.653Z,6.30
2018-04-01T04:08:34.651Z,6.30
2018-04-01T04:11:01.657Z,6.30
2018-04-01T04:13:28.636Z,6.30
2018-04-01T04:15:55.624Z,6.30
2018-04-01T04:18:22.601Z,6.30
2018-04-01T04:20:49.592Z,6.30
2018-04-01T04:23:17.361Z,6.30
2018-04-01T04:25:44.340Z,6.40
2018-04-01T04:28:11.316Z,6.40
2018-04-01T04:30:38.306Z,6.30
2018-04-01T04:33:06.069Z,6.30
2018-04-01T04:35:33.056Z,6.30
2018-04-01T04:38:00.049Z,6.30
2018-04-01T04:40:27.032Z,6.30
2018-04-01T04:42:54.774Z,6.30
2018-04-01T04:45:21.761Z,6.30
2018-04-01T04:47:49.542Z,6.30
2018-04-01T04:50:16.532Z,6.30
2018-04-01T04:52:43.518Z,6.30
2018-04-01T04:55:10.504Z,6.30
2018-04-01T04:57:37.480Z,6.30
2018-04-01T05:00:04.493Z,6.30
2018-04-01T05:02:31.467Z,6.30
2018-04-01T05:04:58.451Z,6.20
2018-04-01T05:07:26.203Z,6.20
2018-04-01T05:09:53.185Z,6.30
2018-04-01T05:12:20.179Z,6.30
2018-04-01T05:14:47.933Z,6.30
2018-04-01T05:17:14.917Z,6.20
2018-04-01T05:19:41.898Z,6.20
2018-04-01T05:22:08.894Z,6.20
2018-04-01T05:24:35.897Z,6.10
2018-04-01T05:27:02.871Z,6.10
2018-04-01T05:29:29.862Z,6.10
2018-04-01T05:31:57.604Z,6.10
2018-04-01T05:34:24.579Z,6.10
2018-04-01T05:36:52.331Z,6.10
2018-04-01T05:39:19.328Z,6.10
2018-04-01T05:41:46.308Z,6.10
2018-04-01T05:44:13.319Z,6.10
2018-04-01T05:46:41.057Z,6.10
2018-04-01T05:49:08.045Z,6.10
2018-04-01T05:51:35.085Z,6.10
2018-04-01T05:54:02.035Z,6.10
2018-04-01T05:56:29.780Z,6.10
2018-04-01T05:58:56.802Z,6.10
2018-04-01T06:01:24.539Z,6.20
2018-04-01T06:03:51.532Z,6.10
2018-04-01T06:06:18.531Z,6.20
2018-04-01T06:08:46.275Z,6.10
2018-04-01T06:11:13.287Z,6.10
2018-04-01T06:13:40.275Z,6.10
2018-04-01T06:16:07.259Z,6.10
2018-04-01T06:18:35.006Z,6.20
2018-04-01T06:21:01.987Z,6.10
2018-04-01T06:23:29.726Z,6.20
2018-04-01T06:25:56.720Z,6.20
2018-04-01T06:28:23.709Z,6.30
2018-04-01T06:30:50.695Z,6.30
2018-04-01T06:33:17.685Z,6.30
2018-04-01T06:35:44.667Z,6.30
2018-04-01T06:38:12.434Z,6.40
2018-04-01T06:40:39.425Z,5.60
2018-04-01T06:43:06.410Z,6.40
2018-04-01T06:45:33.476Z,6.40
2018-04-01T06:48:00.461Z,6.40
2018-04-01T06:50:27.459Z,6.40
2018-04-01T06:52:55.207Z,6.60
2018-04-01T06:55:22.183Z,6.60
2018-04-01T06:57:49.167Z,6.60
2018-04-01T07:00:16.159Z,6.60
2018-04-01T07:02:43.178Z,6.60
2018-04-01T07:05:10.161Z,6.60
2018-04-01T07:07:37.132Z,6.60
2018-04-01T07:10:04.897Z,6.60
2018-04-01T07:12:31.871Z,6.50
2018-04-01T07:14:58.866Z,6.60
2018-04-01T07:17:25.925Z,6.60
2018-04-01T07:19:52.875Z,6.60
2018-04-01T07:22:19.900Z,6.60
2018-04-01T07:24:46.877Z,6.60
2018-04-01T07:27:13.885Z,6.60
2018-04-01T07:29:40.883Z,6.60
2018-04-01T07:32:07.848Z,6.60
2018-04-01T07:34:34.831Z,6.50
2018-04-01T07:37:02.581Z,6.40
2018-04-01T07:39:29.568Z,6.40
2018-04-01T07:41:56.559Z,6.40
2018-04-01T07:44:23.530Z,6.40
2018-04-01T07:46:50.521Z,6.50
2018-04-01T07:49:18.278Z,6.70
2018-04-01T07:51:46.042Z,6.80
2018-04-01T07:54:13.012Z,6.80
2018-04-01T07:56:40.770Z,7.00
2018-04-01T07:59:08.503Z,7.10
2018-04-01T08:01:35.483Z,7.10
2018-04-01T08:04:02.497Z,7.30
2018-04-01T08:06:29.471Z,7.40
2018-04-01T08:08:56.448Z,7.40
2018-04-01T08:11:23.421Z,7.50
2018-04-01T08:13:51.163Z,7.50
2018-04-01T08:16:18.187Z,7.50
2018-04-01T08:18:45.159Z,7.50
2018-04-01T08:21:12.128Z,7.60
2018-04-01T08:23:40.755Z,7.80
2018-04-01T08:26:07.735Z,7.80
2018-04-01T08:28:34.728Z,7.90
2018-04-01T08:31:02.469Z,8.00
2018-04-01T08:33:29.473Z,8.00
2018-04-01T08:35:56.445Z,8.00
2018-04-01T08:38:23.428Z,8.00
2018-04-01T08:40:50.425Z,8.00
2018-04-01T08:43:18.165Z,8.50
2018-04-01T08:45:45.164Z,8.50
2018-04-01T08:48:12.151Z,8.50
2018-04-01T08:50:39.137Z,8.50
2018-04-01T08:53:06.902Z,8.50
2018-04-01T08:55:33.877Z,8.50
2018-04-01T08:58:01.618Z,8.50
2018-04-01T09:00:28.614Z,8.40
2018-04-01T09:02:55.596Z,8.40
2018-04-01T09:05:22.586Z,8.20
2018-04-01T09:07:50.330Z,8.10
2018-04-01T09:10:17.318Z,8.10
2018-04-01T09:12:45.062Z,8.30
2018-04-01T09:15:12.027Z,8.30
2018-04-01T09:17:39.792Z,8.20
2018-04-01T09:20:06.761Z,8.20
2018-04-01T09:22:34.509Z,8.20
2018-04-01T09:25:01.473Z,8.20
2018-04-01T09:27:29.210Z,8.40
2018-04-01T09:29:56.196Z,8.40
2018-04-01T09:32:23.941Z,8.90
2018-04-01T09:34:50.905Z,8.80
2018-04-01T09:37:17.888Z,9.10
2018-04-01T09:39:45.620Z,9.30
2018-04-01T09:42:12.631Z,9.30
2018-04-01T09:44:39.595Z,9.30
2018-04-01T09:47:06.588Z,9.30
2018-04-01T09:49:33.565Z,9.40
2018-04-01T09:52:01.314Z,9.10
2018-04-01T09:54:28.320Z,9.00
2018-04-01T09:56:55.309Z,8.70
2018-04-01T09:59:22.299Z,8.60
2018-04-01T10:01:50.528Z,8.80
2018-04-01T10:04:18.769Z,8.90
2018-04-01T10:06:46.267Z,8.90
2018-04-01T10:09:14.542Z,9.30
2018-04-01T10:11:42.007Z,9.20
2018-04-01T10:14:09.467Z,9.30
2018-04-01T10:16:36.932Z,9.30
2018-04-01T10:19:04.419Z,9.30
2018-04-01T10:21:31.889Z,9.40
2018-04-01T10:23:59.348Z,9.50
2018-04-01T10:26:26.836Z,9.40
2018-04-01T10:28:55.059Z,8.90
2018-04-01T10:31:22.608Z,8.90
2018-04-01T10:33:50.074Z,8.80
2018-04-01T10:36:17.559Z,8.90
2018-04-01T10:38:45.026Z,8.90
2018-04-01T10:41:12.493Z,9.00
2018-04-01T10:43:42.786Z,8.90
2018-04-01T10:46:10.246Z,8.90
2018-04-01T10:48:37.716Z,8.70
2018-04-01T10:51:05.193Z,8.60
2018-04-01T10:53:32.690Z,8.40
2018-04-01T10:55:59.701Z,8.20
2018-04-01T10:58:26.683Z,8.10
2018-04-01T11:00:53.665Z,8.00
2018-04-01T11:03:20.640Z,7.90
2018-04-01T11:05:47.619Z,7.70
2018-04-01T11:08:14.616Z,7.70
2018-04-01T11:10:41.610Z,7.70
2018-04-01T11:13:08.589Z,7.90
2018-04-01T11:15:35.568Z,8.10
2018-04-01T11:18:02.557Z,8.40
2018-04-01T11:20:30.309Z,8.60
2018-04-01T11:22:58.056Z,8.70
2018-04-01T11:25:25.033Z,8.70
2018-04-01T11:27:52.769Z,9.10
2018-04-01T11:30:19.754Z,9.10
2018-04-01T11:32:47.522Z,8.90
2018-04-01T11:35:14.496Z,9.00
2018-04-01T11:37:41.470Z,8.90
2018-04-01T11:40:08.438Z,8.80
2018-04-01T11:42:35.423Z,8.70
2018-04-01T11:45:02.420Z,8.50
2018-04-01T11:47:29.406Z,8.40
2018-04-01T11:49:56.384Z,8.40
2018-04-01T11:52:23.370Z,8.50
2018-04-01T11:54:50.341Z,8.70
2018-04-01T11:57:17.355Z,8.80
2018-04-01T11:59:45.095Z,8.90
2018-04-01T12:02:12.414Z,8.90
2018-04-01T12:04:39.394Z,8.90
2018-04-01T12:07:06.378Z,8.80
2018-04-01T12:09:33.381Z,8.70
2018-04-01T12:12:00.363Z,8.60
2018-04-01T12:14:27.338Z,8.50
2018-04-01T12:16:55.102Z,8.10
2018-04-01T12:19:22.073Z,8.10
2018-04-01T12:21:49.832Z,7.90
2018-04-01T12:24:17.575Z,8.00
2018-04-01T12:26:44.551Z,7.90
2018-04-01T12:29:11.531Z,8.00
2018-04-01T12:31:38.505Z,8.20
2018-04-01T12:34:05.504Z,8.30
2018-04-01T12:36:32.478Z,8.30
2018-04-01T12:39:00.224Z,8.30
2018-04-01T12:41:27.208Z,8.30
2018-04-01T12:43:54.204Z,8.40
2018-04-01T12:46:21.223Z,8.40
2018-04-01T12:48:48.196Z,8.40
2018-04-01T12:51:15.188Z,8.40
2018-04-01T12:53:42.170Z,8.30
2018-04-01T12:56:09.152Z,8.20
2018-04-01T12:58:36.146Z,8.20
2018-04-01T13:01:03.123Z,8.30
2018-04-01T13:03:30.889Z,8.40
2018-04-01T13:05:58.639Z,8.50
2018-04-01T13:08:25.615Z,8.50
2018-04-01T13:10:52.620Z,8.70
2018-04-01T13:13:19.600Z,8.90
2018-04-01T13:15:46.591Z,9.10
2018-04-01T13:18:13.587Z,9.20
2018-04-01T13:20:40.571Z,9.20
2018-04-01T13:23:08.336Z,9.30
2018-04-01T13:25:36.073Z,9.40
2018-04-01T13:28:03.069Z,9.40
2018-04-01T13:30:30.816Z,9.40
2018-04-01T13:32:57.807Z,9.40
2018-04-01T13:35:24.801Z,9.60
2018-04-01T13:37:51.769Z,9.70
2018-04-01T13:40:18.752Z,9.80
2018-04-01T13:42:46.497Z,10.00
2018-04-01T13:45:13.488Z,10.00
2018-04-01T13:47:40.469Z,10.00
2018-04-01T13:50:07.451Z,9.90
2018-04-01T13:52:34.412Z,9.90
2018-04-01T13:55:02.174Z,9.90
2018-04-01T13:57:29.152Z,9.80
2018-04-01T13:59:56.901Z,9.70
2018-04-01T14:02:24.659Z,9.80
2018-04-01T14:04:51.634Z,9.80
2018-04-01T14:07:19.373Z,10.10
2018-04-01T14:09:46.361Z,10.10
2018-04-01T14:12:14.125Z,10.00
2018-04-01T14:14:41.880Z,10.10
2018-04-01T14:17:08.861Z,10.00
2018-04-01T14:19:35.831Z,10.00
2018-04-01T14:22:02.820Z,9.90
2018-04-01T14:24:29.812Z,9.80
2018-04-01T14:26:57.556Z,9.10
2018-04-01T14:29:24.528Z,9.10
2018-04-01T14:31:52.281Z,8.60
2018-04-01T14:34:19.262Z,8.60
2018-04-01T14:36:47.022Z,7.80
2018-04-01T14:39:14.790Z,7.50
2018-04-01T14:41:42.535Z,7.50
2018-04-01T14:44:09.499Z,7.40
2018-04-01T14:46:36.490Z,7.50
2018-04-01T14:49:03.492Z,7.50
2018-04-01T14:51:30.474Z,7.70
2018-04-01T14:53:58.212Z,7.70
2018-04-01T14:56:25.184Z,7.70
2018-04-01T14:58:53.011Z,7.70
2018-04-01T15:01:19.998Z,7.80
2018-04-01T15:03:46.987Z,7.80
2018-04-01T15:06:14.054Z,7.80
2018-04-01T15:08:41.044Z,7.70
2018-04-01T15:11:08.019Z,7.70
2018-04-01T15:13:35.007Z,7.70
2018-04-01T15:16:01.988Z,7.70
2018-04-01T15:18:28.970Z,7.80
2018-04-01T15:20:55.945Z,7.90
2018-04-01T15:23:23.694Z,8.10
2018-04-01T15:25:50.711Z,8.00
2018-04-01T15:28:17.694Z,8.10
2018-04-01T15:30:44.672Z,8.10
2018-04-01T15:33:12.417Z,8.30
2018-04-01T15:35:39.401Z,8.30
2018-04-01T15:38:07.149Z,8.60
2018-04-01T15:40:34.130Z,8.50
2018-04-01T15:43:01.107Z,8.70
2018-04-01T15:45:28.084Z,8.70
2018-04-01T15:47:55.074Z,8.80
2018-04-01T15:50:22.821Z,8.70
2018-04-01T15:52:49.796Z,8.70
2018-04-01T15:55:17.543Z,8.60
2018-04-01T15:57:44.521Z,8.60
2018-04-01T16:00:12.270Z,8.60
2018-04-01T16:02:39.322Z,8.50
2018-04-01T16:05:06.272Z,8.50
2018-04-01T16:07:33.244Z,8.50
2018-04-01T16:10:00.995Z,8.40
2018-04-01T16:12:27.975Z,8.50
2018-04-01T16:14:55.718Z,8.40
2018-04-01T16:17:22.695Z,8.30
2018-04-01T16:19:49.679Z,8.30
2018-04-01T16:22:16.643Z,8.40
2018-04-01T16:24:43.629Z,8.40
2018-04-01T16:27:10.646Z,8.30
2018-04-01T16:29:37.616Z,8.30
2018-04-01T16:32:04.587Z,8.30
2018-04-01T16:34:31.579Z,8.30
2018-04-01T16:36:58.561Z,8.20
2018-04-01T16:39:25.550Z,8.20
2018-04-01T16:41:53.310Z,8.00
2018-04-01T16:44:20.284Z,8.00
2018-04-01T16:46:48.024Z,8.00
2018-04-01T16:49:14.998Z,8.00
2018-04-01T16:51:42.766Z,7.90
2018-04-01T16:54:10.520Z,7.90
2018-04-01T16:56:37.507Z,7.90
2018-04-01T16:59:05.249Z,7.90
2018-04-01T17:01:32.232Z,7.90
2018-04-01T17:03:59.231Z,8.00
2018-04-01T17:06:26.246Z,7.90
2018-04-01T17:08:53.224Z,7.90
2018-04-01T17:11:20.201Z,7.90
2018-04-01T17:13:47.193Z,7.90
2018-04-01T17:16:14.960Z,7.90
2018-04-01T17:18:41.949Z,7.90
2018-04-01T17:21:08.918Z,8.00
2018-04-01T17:23:35.924Z,8.00
2018-04-01T17:26:02.899Z,8.00
2018-04-01T17:28:29.897Z,7.90
2018-04-01T17:30:56.884Z,7.90
2018-04-01T17:33:23.867Z,7.90
2018-04-01T17:35:50.852Z,7.90
2018-04-01T17:38:17.826Z,7.80
2018-04-01T17:40:45.591Z,7.70
2018-04-01T17:43:13.335Z,7.70
2018-04-01T17:45:40.341Z,7.60
2018-04-01T17:48:07.321Z,7.60
2018-04-01T17:50:34.297Z,7.50
2018-04-01T17:53:01.316Z,7.40
2018-04-01T17:55:28.281Z,7.30
2018-04-01T17:57:55.276Z,7.20
2018-04-01T18:00:23.024Z,7.10
2018-04-01T18:02:50.000Z,7.00
2018-04-01T18:05:17.763Z,6.90
2018-04-01T18:07:45.516Z,6.90
2018-04-01T18:10:12.506Z,6.90
2018-04-01T18:12:39.488Z,6.90
2018-04-01T18:15:06.474Z,6.90
2018-04-01T18:17:33.489Z,6.90
2018-04-01T18:20:00.463Z,6.90
2018-04-01T18:22:27.452Z,6.90
2018-04-01T18:24:55.200Z,6.80
2018-04-01T18:27:22.189Z,6.80
2018-04-01T18:29:49.195Z,6.80
2018-04-01T18:32:16.179Z,6.80
2018-04-01T18:34:43.933Z,6.70
2018-04-01T18:37:10.925Z,6.70
2018-04-01T18:39:37.925Z,6.80
2018-04-01T18:42:04.940Z,6.80
2018-04-01T18:44:31.922Z,6.80
2018-04-01T18:46:58.908Z,6.70
2018-04-01T18:49:26.650Z,6.70
2018-04-01T18:51:53.655Z,6.70
2018-04-01T18:54:20.656Z,6.70
2018-04-01T18:56:47.651Z,6.70
2018-04-01T18:59:15.397Z,6.60
2018-04-01T19:01:43.166Z,6.50
2018-04-01T19:04:10.147Z,6.50
2018-04-01T19:06:37.148Z,6.40
2018-04-01T19:09:04.129Z,6.40
2018-04-01T19:11:31.875Z,6.30
2018-04-01T19:13:58.858Z,6.20
2018-04-01T19:16:27.110Z,6.20
2018-04-01T19:18:54.621Z,6.20
2018-04-01T19:21:22.864Z,6.10
2018-04-01T19:23:50.339Z,6.10
2018-04-01T19:26:18.619Z,6.00
2018-04-01T19:28:46.142Z,6.00
2018-04-01T19:31:13.631Z,6.00
2018-04-01T19:33:41.869Z,6.00
2018-04-01T19:36:09.352Z,6.00
2018-04-01T19:38:36.842Z,6.10
2018-04-01T19:41:04.328Z,6.10
2018-04-01T19:43:32.614Z,6.20
2018-04-01T19:46:00.869Z,6.20
2018-04-01T19:48:28.369Z,6.20
2018-04-01T19:50:56.607Z,6.30
2018-04-01T19:53:24.206Z,6.30
2018-04-01T19:55:51.699Z,6.40
2018-04-01T19:58:19.200Z,6.40
2018-04-01T20:00:46.684Z,6.50
2018-04-01T20:03:14.186Z,6.50
2018-04-01T20:05:41.678Z,6.50
2018-04-01T20:08:09.960Z,6.50
2018-04-01T20:10:37.503Z,6.50
2018-04-01T20:13:05.009Z,6.50
2018-04-01T20:15:32.502Z,6.50
2018-04-01T20:18:00.763Z,6.50
2018-04-01T20:20:28.284Z,6.50
2018-04-01T20:22:55.804Z,6.50
2018-04-01T20:25:23.376Z,6.50
2018-04-01T20:27:51.685Z,6.50
2018-04-01T20:30:19.189Z,6.50
2018-04-01T20:32:46.729Z,6.40
2018-04-01T20:35:14.242Z,6.40
2018-04-01T20:37:41.754Z,6.40
2018-04-01T20:40:09.329Z,6.40
2018-04-01T20:42:36.812Z,6.40
2018-04-01T20:45:04.315Z,6.40
2018-04-01T20:47:32.938Z,6.40
2018-04-01T20:50:00.498Z,6.40
2018-04-01T20:52:28.729Z,6.40
2018-04-01T20:54:56.231Z,6.40
2018-04-01T20:57:24.506Z,6.30
2018-04-01T20:59:52.759Z,6.20
2018-04-01T21:02:20.248Z,6.20
2018-04-01T21:04:48.496Z,6.10
2018-04-01T21:07:16.014Z,6.10
2018-04-01T21:09:43.519Z,6.10
2018-04-01T21:12:11.005Z,6.00
2018-04-01T21:14:39.273Z,6.00
2018-04-01T21:17:06.768Z,6.00
2018-04-01T21:19:35.049Z,6.00
2018-04-01T21:22:03.323Z,6.00
2018-04-01T21:24:31.570Z,6.00
2018-04-01T21:26:59.051Z,6.00
2018-04-01T21:29:26.552Z,6.00
2018-04-01T21:31:54.804Z,6.00
2018-04-01T21:34:22.320Z,5.90
2018-04-01T21:36:49.798Z,6.00
2018-04-01T21:39:18.082Z,5.90
2018-04-01T21:41:45.556Z,5.90
2018-04-01T21:44:13.053Z,5.90
2018-04-01T21:46:41.312Z,5.90
2018-04-01T21:49:08.797Z,5.90
2018-04-01T21:51:36.306Z,5.90
2018-04-01T21:54:03.781Z,5.90
2018-04-01T21:56:31.257Z,5.80
2018-04-01T21:58:58.744Z,5.80
2018-04-01T22:01:26.213Z,5.80
2018-04-01T22:03:53.704Z,5.80
2018-04-01T22:06:21.211Z,5.70
2018-04-01T22:08:48.664Z,5.70
2018-04-01T22:11:16.156Z,5.70
2018-04-01T22:13:43.643Z,5.70
2018-04-01T22:16:11.879Z,5.70
2018-04-01T22:18:40.120Z,5.70
2018-04-01T22:21:07.599Z,5.60
2018-04-01T22:23:35.073Z,5.70
2018-04-01T22:26:02.552Z,5.60
2018-04-01T22:28:30.051Z,5.70
2018-04-01T22:30:57.536Z,5.60
2018-04-01T22:33:25.017Z,5.50
2018-04-01T22:35:52.496Z,5.50
2018-04-01T22:38:19.964Z,5.40
2018-04-01T22:40:47.452Z,5.40
2018-04-01T22:43:14.940Z,5.40
2018-04-01T22:45:43.209Z,5.40
2018-04-01T22:48:10.687Z,5.40
2018-04-01T22:50:38.159Z,5.40
2018-04-01T22:53:06.412Z,5.40
2018-04-01T22:55:33.910Z,5.40
2018-04-01T22:58:02.156Z,5.20
2018-04-01T23:00:29.654Z,5.20
2018-04-01T23:02:58.080Z,5.10
2018-04-01T23:05:25.580Z,5.10
2018-04-01T23:07:53.418Z,5.00
2018-04-01T23:10:20.964Z,5.00
2018-04-01T23:12:48.452Z,4.90
2018-04-01T23:15:16.730Z,4.80
2018-04-01T23:17:44.246Z,4.80
2018-04-01T23:20:12.657Z,4.70
2018-04-01T23:22:41.612Z,4.70
2018-04-01T23:25:09.860Z,4.70
2018-04-01T23:27:37.373Z,4.60
2018-04-01T23:30:05.945Z,4.60
2018-04-01T23:32:33.963Z,4.60
2018-04-01T23:37:40.033Z,4.50
2018-04-01T23:40:07.515Z,4.40
2018-04-01T23:42:35.004Z,4.40
2018-04-01T23:45:02.484Z,4.30
2018-04-01T23:47:29.972Z,4.30
2018-04-01T23:49:57.464Z,4.20
2018-04-01T23:52:24.995Z,4.20
2018-04-01T23:54:53.239Z,4.00
2018-04-01T23:57:21.478Z,4.00
2018-04-01T23:59:48.947Z,4.00
